createdAt,value
2019-04-25T00:04:28.355Z,99.99
2019-04-25T00:09:24.941Z,99.99
2019-04-25T00:14:20.462Z,99.99
2019-04-25T00:19:16.367Z,99.99
2019-04-25T00:24:12.899Z,99.99
2019-04-25T00:29:09.655Z,99.99
2019-04-25T00:34:06.209Z,99.99
2019-04-25T00:39:01.998Z,99.99
2019-04-25T00:43:57.601Z,99.99
2019-04-25T00:48:53.232Z,99.99
2019-04-25T00:53:51.760Z,99.99
2019-04-25T00:58:46.890Z,99.99
2019-04-25T01:03:44.133Z,99.99
2019-04-25T01:08:41.498Z,99.99
2019-04-25T01:13:36.637Z,99.99
2019-04-25T01:18:33.735Z,99.99
2019-04-25T01:23:29.370Z,99.99
2019-04-25T01:28:25.240Z,99.99
2019-04-25T01:33:20.931Z,99.99
2019-04-25T01:38:16.661Z,99.99
2019-04-25T01:43:13.843Z,99.99
2019-04-25T01:48:10.303Z,99.99
2019-04-25T01:53:05.935Z,99.99
2019-04-25T01:58:03.748Z,99.99
2019-04-25T02:03:00.586Z,99.99
2019-04-25T02:07:57.122Z,99.99
2019-04-25T02:12:55.195Z,99.99
2019-04-25T02:17:51.106Z,99.99
2019-04-25T02:22:47.867Z,99.99
2019-04-25T02:27:44.206Z,99.99
2019-04-25T02:32:40.697Z,99.99
2019-04-25T02:37:36.203Z,99.99
2019-04-25T02:42:34.234Z,99.99
2019-04-25T02:47:30.547Z,99.99
2019-04-25T02:52:26.336Z,99.99
2019-04-25T02:57:22.122Z,99.99
2019-04-25T03:02:17.817Z,99.99
2019-04-25T03:07:16.962Z,99.99
2019-04-25T03:12:26.747Z,99.99
2019-04-25T03:17:13.979Z,99.99
2019-04-25T03:22:11.684Z,99.99
2019-04-25T03:27:07.401Z,99.99
2019-04-25T03:32:08.781Z,99.99
2019-04-25T03:37:05.251Z,99.99
2019-04-25T03:42:02.205Z,99.99
2019-04-25T03:46:57.605Z,99.99
2019-04-25T03:51:53.898Z,99.99
2019-04-25T03:56:54.356Z,99.99
2019-04-25T04:01:49.466Z,99.99
2019-04-25T04:06:45.409Z,99.99
2019-04-25T04:11:43.415Z,99.99
2019-04-25T04:16:38.858Z,99.99
2019-04-25T04:21:34.548Z,99.99
2019-04-25T04:26:30.607Z,99.99
2019-04-25T04:31:26.496Z,99.99
2019-04-25T04:36:23.706Z,99.99
2019-04-25T04:41:19.039Z,99.99
2019-04-25T04:46:17.145Z,99.99
2019-04-25T04:51:14.879Z,99.99
2019-04-25T04:56:11.328Z,99.99
2019-04-25T05:01:06.913Z,99.99
2019-04-25T05:06:03.976Z,99.99
2019-04-25T05:11:00.526Z,99.99
2019-04-25T05:15:56.698Z,99.99
2019-04-25T05:20:54.292Z,99.99
2019-04-25T05:25:50.753Z,99.99
2019-04-25T05:30:46.003Z,99.99
2019-04-25T05:35:42.264Z,99.99
2019-04-25T05:40:38.080Z,99.99
2019-04-25T05:45:34.226Z,99.99
2019-04-25T05:50:30.082Z,99.99
2019-04-25T05:55:26.590Z,99.99
2019-04-25T06:00:24.721Z,99.99
2019-04-25T06:05:23.427Z,99.99
2019-04-25T06:10:21.406Z,99.57
2019-04-25T06:15:18.265Z,98.23
2019-04-25T06:20:14.470Z,98.52
2019-04-25T06:25:13.718Z,98.99
2019-04-25T06:30:09.756Z,97.27
2019-04-25T06:35:05.407Z,97.08
2019-04-25T06:40:01.717Z,96.94
2019-04-25T06:44:57.675Z,95.22
2019-04-25T06:49:53.556Z,94.79
2019-04-25T06:54:50.744Z,92.97
2019-04-25T06:59:46.328Z,91.16
2019-04-25T07:04:43.517Z,90.73
2019-04-25T07:09:40.546Z,91.39
2019-04-25T07:14:36.980Z,88.48
2019-04-25T07:19:35.481Z,85.71
2019-04-25T07:24:31.689Z,84.79
2019-04-25T07:29:28.421Z,82.40
2019-04-25T07:34:25.292Z,81.29
2019-04-25T07:39:23.596Z,78.32
2019-04-25T07:44:28.511Z,77.59
2019-04-25T07:49:20.545Z,76.86
2019-04-25T07:54:17.541Z,75.46
2019-04-25T07:59:13.880Z,73.16
2019-04-25T08:04:09.973Z,73.77
2019-04-25T08:09:07.061Z,70.45
2019-04-25T08:14:03.471Z,70.67
2019-04-25T08:18:59.286Z,71.82
2019-04-25T08:23:55.033Z,71.19
2019-04-25T08:28:55.735Z,69.36
2019-04-25T08:33:50.189Z,70.23
2019-04-25T08:38:45.615Z,70.48
2019-04-25T08:43:43.674Z,70.61
2019-04-25T08:48:40.655Z,68.88
2019-04-25T08:53:36.728Z,66.03
2019-04-25T08:58:34.460Z,65.94
2019-04-25T09:03:30.199Z,67.00
2019-04-25T09:08:27.470Z,65.20
2019-04-25T09:13:24.139Z,66.84
2019-04-25T09:18:20.337Z,64.63
2019-04-25T09:23:16.306Z,64.69
2019-04-25T09:28:11.856Z,65.36
2019-04-25T09:33:07.681Z,66.77
2019-04-25T09:38:04.255Z,66.96
2019-04-25T09:42:59.642Z,68.02
2019-04-25T09:47:55.381Z,68.69
2019-04-25T09:52:51.472Z,68.30
2019-04-25T09:57:47.597Z,68.79
2019-04-25T10:02:44.614Z,68.73
2019-04-25T10:07:40.693Z,68.63
2019-04-25T10:12:37.358Z,69.30
2019-04-25T10:17:33.883Z,69.01
2019-04-25T10:22:29.494Z,68.91
2019-04-25T10:27:26.010Z,69.78
2019-04-25T10:32:23.704Z,70.42
2019-04-25T10:37:19.883Z,71.19
2019-04-25T10:42:16.347Z,70.80
2019-04-25T10:47:12.329Z,70.80
2019-04-25T10:52:08.514Z,70.26
2019-04-25T10:57:06.612Z,68.76
2019-04-25T11:02:04.021Z,68.41
2019-04-25T11:07:03.740Z,64.82
2019-04-25T11:12:01.166Z,61.52
2019-04-25T11:16:58.415Z,60.10
2019-04-25T11:21:55.686Z,58.04
2019-04-25T11:26:55.159Z,55.46
2019-04-25T11:31:53.431Z,55.56
2019-04-25T11:36:49.466Z,55.54
2019-04-25T11:41:46.080Z,54.96
2019-04-25T11:46:41.030Z,56.27
2019-04-25T11:51:34.377Z,57.24
2019-04-25T11:56:29.742Z,59.30
2019-04-25T12:01:24.455Z,59.75
2019-04-25T12:06:19.857Z,60.72
2019-04-25T12:11:15.012Z,59.37
2019-04-25T12:16:11.973Z,58.60
2019-04-25T12:21:07.541Z,56.96
2019-04-25T12:26:03.860Z,56.48
2019-04-25T12:30:59.422Z,56.29
2019-04-25T12:35:56.527Z,56.58
2019-04-25T12:40:54.078Z,56.58
2019-04-25T12:45:49.899Z,55.43
2019-04-25T12:50:48.745Z,55.00
2019-04-25T12:55:47.360Z,54.90
2019-04-25T13:00:49.597Z,54.54
2019-04-25T13:05:44.184Z,54.13
2019-04-25T13:10:39.321Z,53.94
2019-04-25T13:15:36.115Z,53.00
2019-04-25T13:20:31.461Z,52.81
2019-04-25T13:25:27.642Z,53.87
2019-04-25T13:30:24.153Z,52.04
2019-04-25T13:35:21.006Z,52.71
2019-04-25T13:40:17.512Z,52.81
2019-04-25T13:45:14.779Z,53.19
2019-04-25T13:50:10.907Z,52.81
2019-04-25T13:55:06.865Z,53.22
2019-04-25T14:00:04.145Z,53.03
2019-04-25T14:04:59.921Z,51.89
2019-04-25T14:09:56.391Z,51.89
2019-04-25T14:14:54.064Z,50.64
2019-04-25T14:19:49.796Z,48.90
2019-04-25T14:24:45.910Z,49.39
2019-04-25T14:29:43.684Z,48.81
2019-04-25T14:34:40.980Z,49.10
2019-04-25T14:39:38.226Z,49.19
2019-04-25T14:44:34.999Z,49.39
2019-04-25T14:49:30.706Z,50.16
2019-04-25T14:54:28.446Z,49.48
2019-04-25T14:59:24.472Z,49.48
2019-04-25T15:04:20.248Z,50.06
2019-04-25T15:09:15.857Z,50.16
2019-04-25T15:14:11.655Z,50.32
2019-04-25T15:19:09.035Z,50.54
2019-04-25T15:24:04.673Z,50.84
2019-04-25T15:29:00.650Z,50.26
2019-04-25T15:33:56.693Z,50.54
2019-04-25T15:38:52.558Z,51.89
2019-04-25T15:43:48.208Z,51.03
2019-04-25T15:48:44.530Z,51.41
2019-04-25T15:53:42.287Z,51.61
2019-04-25T15:58:37.829Z,50.52
2019-04-25T16:03:35.236Z,51.29
2019-04-25T16:08:31.713Z,51.20
2019-04-25T16:13:28.237Z,51.97
2019-04-25T16:18:24.870Z,52.09
2019-04-25T16:23:20.315Z,51.97
2019-04-25T16:28:16.123Z,52.83
2019-04-25T16:33:12.144Z,53.03
2019-04-25T16:38:08.452Z,53.15
2019-04-25T16:43:04.635Z,53.83
2019-04-25T16:48:01.422Z,55.63
2019-04-25T16:52:57.004Z,56.59
2019-04-25T16:57:52.885Z,56.49
2019-04-25T17:02:48.664Z,57.37
2019-04-25T17:07:44.945Z,56.79
2019-04-25T17:12:40.922Z,58.42
2019-04-25T17:17:36.673Z,58.49
2019-04-25T17:22:32.546Z,59.07
2019-04-25T17:27:29.196Z,59.84
2019-04-25T17:32:24.989Z,60.68
2019-04-25T17:37:20.656Z,60.49
2019-04-25T17:42:17.598Z,62.12
2019-04-25T17:47:13.072Z,61.45
2019-04-25T17:52:08.886Z,61.25
2019-04-25T17:57:05.472Z,62.12
2019-04-25T18:02:02.220Z,62.99
2019-04-25T18:06:57.568Z,62.41
2019-04-25T18:11:53.735Z,61.16
2019-04-25T18:16:49.691Z,61.71
2019-04-25T18:21:46.603Z,64.76
2019-04-25T18:26:41.935Z,67.48
2019-04-25T18:31:37.962Z,68.98
2019-04-25T18:36:33.698Z,70.81
2019-04-25T18:41:29.410Z,72.22
2019-04-25T18:46:25.054Z,73.04
2019-04-25T18:51:20.668Z,73.91
2019-04-25T18:56:16.594Z,74.01
2019-04-25T19:01:12.170Z,74.73
2019-04-25T19:06:07.750Z,75.60
2019-04-25T19:11:04.805Z,76.37
2019-04-25T19:16:00.559Z,75.70
2019-04-25T19:20:56.650Z,76.46
2019-04-25T19:25:53.401Z,76.65
2019-04-25T19:30:49.021Z,76.84
2019-04-25T19:35:45.673Z,76.46
2019-04-25T19:40:42.165Z,77.19
2019-04-25T19:45:37.975Z,77.09
2019-04-25T19:50:33.817Z,77.48
2019-04-25T19:55:29.592Z,78.63
2019-04-25T20:00:25.405Z,78.72
2019-04-25T20:05:21.699Z,78.72
2019-04-25T20:10:17.620Z,79.30
2019-04-25T20:15:13.316Z,79.30
2019-04-25T20:20:09.319Z,79.16
2019-04-25T20:25:06.350Z,79.16
2019-04-25T20:30:01.967Z,80.41
2019-04-25T20:34:58.618Z,82.38
2019-04-25T20:39:54.818Z,83.05
2019-04-25T20:44:51.698Z,83.92
2019-04-25T20:49:48.776Z,85.45
2019-04-25T20:54:44.347Z,86.17
2019-04-25T20:59:40.096Z,87.61
2019-04-25T21:04:36.358Z,88.66
2019-04-25T21:09:32.177Z,89.33
2019-04-25T21:14:27.905Z,89.62
2019-04-25T21:19:23.896Z,90.58
2019-04-25T21:24:19.679Z,91.15
2019-04-25T21:29:15.210Z,91.44
2019-04-25T21:34:11.057Z,91.82
2019-04-25T21:39:07.117Z,92.73
2019-04-25T21:44:03.368Z,93.40
2019-04-25T21:48:59.372Z,94.17
2019-04-25T21:53:55.241Z,94.21
2019-04-25T21:58:51.452Z,95.98
2019-04-25T22:03:48.308Z,96.75
2019-04-25T22:08:44.017Z,95.98
2019-04-25T22:13:39.590Z,96.70
2019-04-25T22:18:36.975Z,97.56
2019-04-25T22:23:33.393Z,98.14
2019-04-25T22:28:30.031Z,99.04
2019-04-25T22:33:26.327Z,99.99
2019-04-25T22:38:23.158Z,99.99
2019-04-25T22:43:19.849Z,99.99
2019-04-25T22:48:15.662Z,99.99
2019-04-25T22:53:22.607Z,99.99
2019-04-25T22:58:11.948Z,99.99
2019-04-25T23:03:07.465Z,99.99
2019-04-25T23:08:04.323Z,99.99
2019-04-25T23:13:00.764Z,99.99
2019-04-25T23:17:56.422Z,99.99
2019-04-25T23:22:52.582Z,99.99
2019-04-25T23:27:49.349Z,99.99
2019-04-25T23:32:45.198Z,99.99
2019-04-25T23:37:41.091Z,99.99
2019-04-25T23:42:38.058Z,99.99
2019-04-25T23:47:35.103Z,99.99
2019-04-25T23:52:30.863Z,99.99
2019-04-25T23:57:27.704Z,99.99
